createdAt,value
2023-03-08T00:00:08.530Z,49.63
2023-03-08T00:02:39.103Z,46.35
2023-03-08T00:05:07.963Z,48.90
2023-03-08T00:07:36.029Z,47.92
2023-03-08T00:10:04.296Z,47.88
2023-03-08T00:12:32.432Z,46.28
2023-03-08T00:15:02.070Z,45.33
2023-03-08T00:17:30.240Z,45.65
2023-03-08T00:19:58.554Z,45.28
2023-03-08T00:22:26.812Z,43.58
2023-03-08T00:24:55.157Z,40.55
2023-03-08T00:27:23.260Z,43.92
2023-03-08T00:29:51.523Z,43.58
2023-03-08T00:32:21.150Z,41.60
2023-03-08T00:34:52.674Z,40.58
2023-03-08T00:37:20.878Z,41.45
2023-03-08T00:39:51.833Z,39.33
2023-03-08T00:42:20.387Z,40.42
2023-03-08T00:44:48.652Z,40.47
2023-03-08T00:47:16.848Z,43.38
2023-03-08T00:49:46.481Z,38.17
2023-03-08T00:52:15.865Z,37.88
2023-03-08T00:54:45.613Z,37.42
2023-03-08T00:57:13.972Z,34.17
2023-03-08T00:59:42.112Z,36.08
2023-03-08T01:02:12.360Z,36.17
2023-03-08T01:04:41.352Z,35.13
2023-03-08T01:07:10.841Z,35.20
2023-03-08T01:09:39.779Z,35.88
2023-03-08T01:12:08.005Z,35.03
2023-03-08T01:14:38.975Z,35.15
2023-03-08T01:17:08.104Z,34.00
2023-03-08T01:19:36.173Z,34.83
2023-03-08T01:22:05.691Z,31.90
2023-03-08T01:24:35.629Z,32.50
2023-03-08T01:27:03.827Z,33.03
2023-03-08T01:29:31.967Z,32.58
2023-03-08T01:32:00.130Z,31.83
2023-03-08T01:34:28.193Z,33.40
2023-03-08T01:36:56.699Z,31.67
2023-03-08T01:39:24.754Z,30.40
2023-03-08T01:41:54.336Z,29.92
2023-03-08T01:44:22.938Z,30.77
2023-03-08T01:46:52.349Z,29.33
2023-03-08T01:49:20.827Z,30.33
2023-03-08T01:51:51.442Z,28.92
2023-03-08T01:54:21.049Z,30.83
2023-03-08T01:56:49.860Z,29.35
2023-03-08T01:59:19.460Z,29.60
2023-03-08T02:01:48.052Z,29.48
2023-03-08T02:04:16.377Z,28.05
2023-03-08T02:06:46.636Z,27.90
2023-03-08T02:09:19.616Z,27.77
2023-03-08T02:11:47.870Z,27.65
2023-03-08T02:14:16.030Z,26.88
2023-03-08T02:16:48.784Z,28.33
2023-03-08T02:19:19.136Z,26.45
2023-03-08T02:21:47.596Z,25.83
2023-03-08T02:24:21.827Z,26.23
2023-03-08T02:26:49.934Z,27.63
2023-03-08T02:29:18.084Z,26.33
2023-03-08T02:31:46.505Z,25.75
2023-03-08T02:34:14.852Z,23.33
2023-03-08T02:36:42.981Z,24.70
2023-03-08T02:39:12.524Z,25.42
2023-03-08T02:41:42.057Z,23.70
2023-03-08T02:44:10.215Z,26.95
2023-03-08T02:46:38.322Z,25.35
2023-03-08T02:49:06.424Z,25.38
2023-03-08T02:51:34.517Z,24.70
2023-03-08T02:54:02.587Z,22.05
2023-03-08T02:56:30.807Z,23.52
2023-03-08T02:59:00.359Z,22.10
2023-03-08T03:01:28.822Z,23.08
2023-03-08T03:03:56.981Z,23.05
2023-03-08T03:06:25.233Z,23.00
2023-03-08T03:08:57.127Z,22.15
2023-03-08T03:11:25.965Z,21.90
2023-03-08T03:13:57.880Z,21.83
2023-03-08T03:16:31.645Z,22.13
2023-03-08T03:19:00.628Z,20.30
2023-03-08T03:21:28.853Z,22.40
2023-03-08T03:23:57.035Z,20.73
2023-03-08T03:26:32.924Z,20.80
2023-03-08T03:29:01.430Z,21.08
2023-03-08T03:31:35.678Z,22.27
2023-03-08T03:34:04.152Z,21.27
2023-03-08T03:36:34.440Z,20.95
2023-03-08T03:39:03.393Z,19.85
2023-03-08T03:41:33.960Z,21.13
2023-03-08T03:44:07.203Z,19.00
2023-03-08T03:46:37.680Z,20.10
2023-03-08T03:49:08.682Z,19.73
2023-03-08T03:51:40.381Z,19.40
2023-03-08T03:54:28.858Z,18.77
2023-03-08T03:57:00.425Z,19.02
2023-03-08T03:59:34.094Z,18.65
2023-03-08T04:02:04.637Z,18.33
2023-03-08T04:04:38.614Z,18.23
2023-03-08T04:07:07.107Z,18.02
2023-03-08T04:09:40.560Z,18.15
2023-03-08T04:12:16.069Z,19.25
2023-03-08T04:14:45.299Z,18.10
2023-03-08T04:17:16.187Z,19.02
2023-03-08T04:19:55.611Z,17.98
2023-03-08T04:22:23.998Z,19.23
2023-03-08T04:25:03.249Z,17.35
2023-03-08T04:27:40.817Z,18.33
2023-03-08T04:30:10.093Z,17.75
2023-03-08T04:32:39.688Z,17.70
2023-03-08T04:35:08.969Z,17.27
2023-03-08T04:37:40.283Z,19.15
2023-03-08T04:40:14.279Z,15.93
2023-03-08T04:42:49.936Z,18.00
2023-03-08T04:45:22.346Z,16.98
2023-03-08T04:47:52.770Z,15.70
2023-03-08T04:50:21.732Z,16.25
2023-03-08T04:52:50.248Z,15.90
2023-03-08T04:55:18.636Z,18.45
2023-03-08T04:57:48.051Z,16.40
2023-03-08T05:00:17.058Z,15.57
2023-03-08T05:02:45.812Z,15.77
2023-03-08T05:05:19.221Z,16.23
2023-03-08T05:07:48.182Z,15.52
2023-03-08T05:10:16.823Z,15.10
2023-03-08T05:12:45.046Z,14.90
2023-03-08T05:15:13.319Z,15.07
2023-03-08T05:17:41.481Z,14.90
2023-03-08T05:20:11.597Z,14.65
2023-03-08T05:22:58.235Z,15.35
2023-03-08T05:25:32.326Z,15.18
2023-03-08T05:28:02.025Z,15.95
2023-03-08T05:30:30.308Z,15.57
2023-03-08T05:32:58.880Z,15.30
2023-03-08T05:35:27.464Z,14.52
2023-03-08T05:37:58.247Z,13.90
2023-03-08T05:40:27.025Z,15.35
2023-03-08T05:42:56.060Z,22.05
2023-03-08T05:45:26.580Z,14.18
2023-03-08T05:47:55.491Z,14.57
2023-03-08T05:50:24.351Z,14.15
2023-03-08T05:52:54.018Z,15.82
2023-03-08T05:55:28.208Z,13.55
2023-03-08T05:57:57.407Z,14.43
2023-03-08T06:00:26.568Z,13.77
2023-03-08T06:02:59.698Z,13.48
2023-03-08T06:05:28.516Z,14.57
2023-03-08T06:07:57.987Z,14.68
2023-03-08T06:10:26.091Z,16.73
2023-03-08T06:12:56.849Z,13.18
2023-03-08T06:15:26.164Z,13.45
2023-03-08T06:17:54.871Z,13.60
2023-03-08T06:20:25.780Z,13.80
2023-03-08T06:22:53.964Z,14.05
2023-03-08T06:25:22.240Z,14.65
2023-03-08T06:27:50.852Z,13.35
2023-03-08T06:30:32.026Z,13.95
2023-03-08T06:33:00.463Z,14.98
2023-03-08T06:35:28.643Z,12.38
2023-03-08T06:38:01.112Z,16.77
2023-03-08T06:40:29.250Z,21.33
2023-03-08T06:42:57.325Z,22.30
2023-03-08T06:45:25.532Z,31.35
2023-03-08T06:47:55.054Z,22.02
2023-03-08T06:50:23.145Z,28.83
2023-03-08T06:52:51.747Z,29.38
2023-03-08T06:55:27.969Z,29.13
2023-03-08T06:57:56.659Z,29.20
2023-03-08T07:00:25.003Z,34.63
2023-03-08T07:02:54.979Z,30.17
2023-03-08T07:05:23.065Z,30.10
2023-03-08T07:07:51.213Z,36.95
2023-03-08T07:10:19.653Z,30.55
2023-03-08T07:12:49.266Z,28.85
2023-03-08T07:15:19.059Z,32.60
2023-03-08T07:17:47.232Z,31.90
2023-03-08T07:20:17.452Z,32.00
2023-03-08T07:22:45.734Z,35.50
2023-03-08T07:25:13.964Z,35.78
2023-03-08T07:27:41.973Z,37.90
2023-03-08T07:30:11.235Z,40.70
2023-03-08T07:32:40.805Z,44.80
2023-03-08T07:35:09.742Z,44.45
2023-03-08T07:37:39.266Z,41.88
2023-03-08T07:40:08.782Z,46.72
2023-03-08T07:42:36.864Z,49.15
2023-03-08T07:45:17.291Z,46.75
2023-03-08T07:47:45.533Z,43.05
2023-03-08T07:50:13.926Z,45.28
2023-03-08T07:52:43.390Z,46.50
2023-03-08T07:55:12.131Z,48.35
2023-03-08T07:57:40.207Z,46.78
2023-03-08T08:00:09.584Z,46.15
2023-03-08T08:02:40.683Z,46.28
2023-03-08T08:05:09.539Z,49.22
2023-03-08T08:07:37.653Z,49.05
2023-03-08T08:10:08.751Z,47.75
2023-03-08T08:12:36.903Z,44.00
2023-03-08T08:15:05.617Z,46.00
2023-03-08T08:17:33.820Z,44.90
2023-03-08T08:20:01.880Z,43.83
2023-03-08T08:22:30.003Z,45.85
2023-03-08T08:24:58.109Z,44.65
2023-03-08T08:27:27.604Z,45.10
2023-03-08T08:29:56.256Z,48.15
2023-03-08T08:32:24.496Z,47.28
2023-03-08T08:34:52.642Z,46.70
2023-03-08T08:37:20.835Z,44.47
2023-03-08T08:39:48.926Z,43.35
2023-03-08T08:42:17.016Z,44.60
2023-03-08T08:44:46.499Z,41.90
2023-03-08T08:47:14.584Z,43.67
2023-03-08T08:49:42.910Z,43.20
2023-03-08T08:52:11.176Z,43.60
2023-03-08T08:54:40.503Z,42.33
2023-03-08T08:57:08.624Z,42.28
2023-03-08T08:59:36.704Z,40.63
2023-03-08T09:02:06.376Z,42.38
2023-03-08T09:04:34.707Z,41.08
2023-03-08T09:07:02.875Z,42.00
2023-03-08T09:09:30.994Z,39.20
2023-03-08T09:11:59.081Z,39.47
2023-03-08T09:14:27.268Z,41.10
2023-03-08T09:16:55.478Z,41.53
2023-03-08T09:19:25.046Z,42.90
2023-03-08T09:21:53.364Z,44.22
2023-03-08T09:24:21.486Z,50.95
2023-03-08T09:26:49.598Z,50.38
2023-03-08T09:29:17.775Z,50.92
2023-03-08T09:31:46.432Z,48.38
2023-03-08T09:34:15.571Z,52.47
2023-03-08T09:36:45.651Z,52.83
2023-03-08T09:39:14.199Z,53.60
2023-03-08T09:41:52.770Z,58.72
2023-03-08T09:44:48.319Z,61.05
2023-03-08T09:47:21.630Z,60.42
2023-03-08T09:49:51.843Z,64.20
2023-03-08T09:52:25.461Z,63.70
2023-03-08T09:54:53.766Z,66.00
2023-03-08T09:57:24.127Z,61.40
2023-03-08T09:59:54.719Z,62.63
2023-03-08T10:02:28.884Z,64.28
2023-03-08T10:05:12.301Z,65.97
2023-03-08T10:07:49.577Z,68.75
2023-03-08T10:10:34.986Z,67.18
2023-03-08T10:13:24.417Z,65.57
2023-03-08T10:15:53.698Z,67.78
2023-03-08T10:18:25.188Z,70.82
2023-03-08T10:20:53.327Z,66.93
2023-03-08T10:23:23.383Z,69.40
2023-03-08T10:25:51.880Z,66.90
2023-03-08T10:28:21.122Z,78.35
2023-03-08T10:30:50.256Z,72.93
2023-03-08T10:33:19.423Z,68.20
2023-03-08T10:35:58.866Z,69.95
2023-03-08T10:38:30.060Z,71.07
2023-03-08T10:41:02.410Z,69.68
2023-03-08T10:43:31.544Z,71.80
2023-03-08T10:46:03.671Z,67.30
2023-03-08T10:48:31.900Z,69.45
2023-03-08T10:51:01.092Z,66.75
2023-03-08T10:53:30.679Z,67.75
2023-03-08T10:56:01.953Z,70.35
2023-03-08T10:58:34.986Z,68.72
2023-03-08T11:01:05.470Z,67.85
2023-03-08T11:03:33.599Z,68.20
2023-03-08T11:06:03.088Z,65.88
2023-03-08T11:08:34.050Z,61.53
2023-03-08T11:11:10.328Z,59.97
2023-03-08T11:13:39.289Z,63.78
2023-03-08T11:16:13.414Z,62.95
2023-03-08T11:18:51.276Z,69.45
2023-03-08T11:21:21.985Z,67.28
2023-03-08T11:23:54.984Z,68.13
2023-03-08T11:26:27.203Z,71.72
2023-03-08T11:29:03.362Z,70.03
2023-03-08T11:31:34.152Z,70.93
2023-03-08T11:34:21.895Z,71.38
2023-03-08T11:36:52.083Z,72.57
2023-03-08T11:39:26.028Z,68.50
2023-03-08T11:41:57.497Z,69.05
2023-03-08T11:44:36.426Z,73.13
2023-03-08T11:47:24.276Z,69.35
2023-03-08T11:49:56.029Z,68.85
2023-03-08T11:52:28.854Z,71.28
2023-03-08T11:55:07.467Z,69.63
2023-03-08T11:57:36.965Z,71.47
2023-03-08T12:00:13.004Z,68.30
2023-03-08T12:02:43.830Z,69.07
2023-03-08T12:05:15.031Z,71.80
2023-03-08T12:07:44.736Z,68.32
2023-03-08T12:10:19.432Z,71.10
2023-03-08T12:12:49.497Z,72.10
2023-03-08T12:15:23.518Z,73.95
2023-03-08T12:17:53.922Z,82.03
2023-03-08T12:20:22.430Z,82.22
2023-03-08T12:22:52.587Z,78.43
2023-03-08T12:25:25.764Z,79.72
2023-03-08T12:27:56.981Z,79.97
2023-03-08T12:30:30.527Z,81.10
2023-03-08T12:33:00.218Z,77.03
2023-03-08T12:35:30.597Z,72.80
2023-03-08T12:38:00.287Z,75.80
2023-03-08T12:40:40.977Z,73.50
2023-03-08T12:43:11.615Z,67.95
2023-03-08T12:45:40.266Z,64.68
2023-03-08T12:48:18.952Z,66.63
2023-03-08T12:50:59.708Z,74.03
2023-03-08T12:53:35.387Z,69.03
2023-03-08T12:56:17.217Z,65.45
2023-03-08T12:58:50.227Z,67.50
2023-03-08T13:01:35.908Z,66.40
2023-03-08T13:04:05.388Z,65.47
2023-03-08T13:06:55.038Z,70.65
2023-03-08T13:09:24.200Z,68.30
2023-03-08T13:11:57.641Z,63.80
2023-03-08T13:14:27.368Z,70.85
2023-03-08T13:16:55.656Z,66.00
2023-03-08T13:19:27.375Z,65.07
2023-03-08T13:22:02.145Z,62.88
2023-03-08T13:24:42.733Z,62.70
2023-03-08T13:27:22.841Z,61.25
2023-03-08T13:29:51.016Z,62.40
2023-03-08T13:32:20.121Z,58.97
2023-03-08T13:34:59.045Z,60.70
2023-03-08T13:37:28.119Z,58.65
2023-03-08T13:39:57.193Z,56.20
2023-03-08T13:42:27.291Z,56.00
2023-03-08T13:44:55.767Z,54.38
2023-03-08T13:47:25.666Z,54.15
2023-03-08T13:49:54.942Z,54.42
2023-03-08T13:52:24.294Z,58.00
2023-03-08T13:54:54.258Z,49.70
2023-03-08T13:57:23.655Z,52.58
2023-03-08T13:59:54.595Z,51.50
2023-03-08T14:02:23.609Z,51.75
2023-03-08T14:04:51.862Z,51.92
2023-03-08T14:07:23.188Z,53.58
2023-03-08T14:09:51.370Z,51.17
2023-03-08T14:12:20.641Z,51.92
2023-03-08T14:14:50.058Z,50.30
2023-03-08T14:17:22.652Z,50.15
2023-03-08T14:19:54.640Z,47.95
2023-03-08T14:22:37.722Z,49.33
2023-03-08T14:25:07.374Z,50.72
2023-03-08T14:27:38.935Z,47.15
2023-03-08T14:30:13.835Z,47.42
2023-03-08T14:32:43.818Z,47.38
2023-03-08T14:35:17.783Z,48.97
2023-03-08T14:37:46.317Z,45.75
2023-03-08T14:40:26.697Z,47.35
2023-03-08T14:42:55.771Z,46.17
2023-03-08T14:45:25.266Z,55.15
2023-03-08T14:47:55.766Z,57.55
2023-03-08T14:50:25.673Z,50.75
2023-03-08T14:52:54.992Z,51.85
2023-03-08T14:55:24.548Z,50.38
2023-03-08T14:57:53.883Z,46.88
2023-03-08T15:00:23.046Z,47.63
2023-03-08T15:02:51.180Z,47.13
2023-03-08T15:05:28.788Z,46.50
2023-03-08T15:07:59.359Z,47.10
2023-03-08T15:10:29.233Z,45.42
2023-03-08T15:12:57.589Z,48.33
2023-03-08T15:15:25.680Z,44.08
2023-03-08T15:17:53.801Z,44.88
2023-03-08T15:20:24.968Z,43.53
2023-03-08T15:22:53.837Z,43.78
2023-03-08T15:25:24.627Z,43.38
2023-03-08T15:27:53.186Z,42.45
2023-03-08T15:30:22.907Z,44.72
2023-03-08T15:32:51.063Z,45.75
2023-03-08T15:35:19.813Z,45.20
2023-03-08T15:37:49.388Z,47.88
2023-03-08T15:40:18.211Z,47.33
2023-03-08T15:42:46.390Z,45.78
2023-03-08T15:45:14.652Z,47.58
2023-03-08T15:47:42.774Z,43.30
2023-03-08T15:50:15.608Z,43.22
2023-03-08T15:52:44.001Z,47.00
2023-03-08T15:55:13.918Z,46.28
2023-03-08T15:57:42.077Z,46.50
2023-03-08T16:00:12.601Z,43.53
2023-03-08T16:02:41.213Z,44.58
2023-03-08T16:05:10.701Z,46.65
2023-03-08T16:07:39.084Z,42.58
2023-03-08T16:10:08.693Z,43.45
2023-03-08T16:12:38.170Z,43.15
2023-03-08T16:15:07.571Z,42.38
2023-03-08T16:17:35.765Z,42.03
2023-03-08T16:20:06.150Z,38.00
2023-03-08T16:22:35.401Z,42.25
2023-03-08T16:25:03.609Z,37.80
2023-03-08T16:27:36.279Z,39.72
2023-03-08T16:30:08.674Z,40.83
2023-03-08T16:32:36.967Z,43.45
2023-03-08T16:35:05.643Z,40.60
2023-03-08T16:37:33.760Z,42.22
2023-03-08T16:40:02.474Z,44.10
2023-03-08T16:42:30.820Z,46.42
2023-03-08T16:45:00.068Z,43.08
2023-03-08T16:47:32.316Z,44.50
2023-03-08T16:50:00.816Z,43.88
2023-03-08T16:52:29.176Z,44.08
2023-03-08T16:54:57.647Z,45.92
2023-03-08T16:57:27.073Z,42.17
2023-03-08T16:59:55.294Z,42.53
2023-03-08T17:02:24.129Z,44.35
2023-03-08T17:04:54.322Z,50.17
2023-03-08T17:07:22.710Z,58.80
2023-03-08T17:09:51.710Z,55.90
2023-03-08T17:12:20.241Z,54.85
2023-03-08T17:14:48.347Z,48.85
2023-03-08T17:17:16.691Z,50.25
2023-03-08T17:19:44.862Z,53.20
2023-03-08T17:22:14.372Z,49.85
2023-03-08T17:24:42.458Z,50.33
2023-03-08T17:27:10.639Z,51.85
2023-03-08T17:29:38.745Z,48.55
2023-03-08T17:32:07.581Z,47.35
2023-03-08T17:34:36.443Z,49.22
2023-03-08T17:37:04.633Z,46.92
2023-03-08T17:39:34.079Z,47.30
2023-03-08T17:42:02.247Z,46.17
2023-03-08T17:44:30.450Z,43.53
2023-03-08T17:46:58.598Z,46.78
2023-03-08T17:49:26.688Z,42.65
2023-03-08T17:51:54.969Z,41.67
2023-03-08T17:54:23.170Z,42.92
2023-03-08T17:56:52.709Z,41.47
2023-03-08T17:59:20.925Z,40.25
2023-03-08T18:01:49.097Z,42.78
2023-03-08T18:04:19.040Z,41.58
2023-03-08T18:06:47.272Z,41.25
2023-03-08T18:09:16.592Z,40.55
2023-03-08T18:11:44.799Z,41.25
2023-03-08T18:14:14.922Z,36.75
2023-03-08T18:16:44.800Z,39.13
2023-03-08T18:19:13.167Z,37.70
2023-03-08T18:21:41.806Z,36.45
2023-03-08T18:24:11.380Z,37.15
2023-03-08T18:26:39.510Z,38.60
2023-03-08T18:29:07.737Z,35.88
2023-03-08T18:31:37.547Z,36.80
2023-03-08T18:34:05.728Z,36.00
2023-03-08T18:36:33.955Z,36.45
2023-03-08T18:39:02.183Z,35.35
2023-03-08T18:41:30.550Z,35.10
2023-03-08T18:43:59.515Z,34.80
2023-03-08T18:46:29.567Z,34.13
2023-03-08T18:49:00.773Z,35.92
2023-03-08T18:51:28.903Z,34.05
2023-03-08T18:53:57.195Z,33.42
2023-03-08T18:56:26.207Z,32.67
2023-03-08T18:58:54.286Z,33.63
2023-03-08T19:01:22.849Z,34.72
2023-03-08T19:03:51.297Z,37.63
2023-03-08T19:06:20.951Z,39.75
2023-03-08T19:08:49.072Z,40.72
2023-03-08T19:11:17.913Z,41.40
2023-03-08T19:13:46.054Z,38.97
2023-03-08T19:16:18.415Z,39.85
2023-03-08T19:18:46.752Z,43.05
2023-03-08T19:21:19.069Z,41.78
2023-03-08T19:23:48.763Z,42.90
2023-03-08T19:26:36.072Z,43.75
2023-03-08T19:29:05.381Z,42.97
2023-03-08T19:31:33.610Z,41.80
2023-03-08T19:34:02.330Z,43.00
2023-03-08T19:36:30.428Z,42.78
2023-03-08T19:38:59.957Z,43.03
2023-03-08T19:41:28.068Z,41.67
2023-03-08T19:43:56.146Z,55.40
2023-03-08T19:46:24.439Z,41.78
2023-03-08T19:48:52.605Z,43.17
2023-03-08T19:51:20.938Z,41.45
2023-03-08T19:53:49.059Z,44.65
2023-03-08T19:56:19.555Z,43.88
2023-03-08T19:58:47.985Z,44.13
2023-03-08T20:01:18.743Z,42.33
2023-03-08T20:03:47.293Z,45.00
2023-03-08T20:06:22.893Z,43.22
2023-03-08T20:08:51.408Z,44.90
2023-03-08T20:11:21.081Z,44.50
2023-03-08T20:13:49.237Z,41.28
2023-03-08T20:16:18.071Z,43.78
2023-03-08T20:18:49.153Z,42.53
2023-03-08T20:21:17.319Z,42.55
2023-03-08T20:23:45.422Z,42.50
2023-03-08T20:26:13.589Z,41.42
2023-03-08T20:28:43.023Z,41.17
2023-03-08T20:31:11.348Z,42.30
2023-03-08T20:33:39.538Z,41.78
2023-03-08T20:36:08.336Z,42.03
2023-03-08T20:38:36.496Z,42.75
2023-03-08T20:41:05.553Z,40.00
2023-03-08T20:43:33.972Z,41.47
2023-03-08T20:46:05.939Z,39.58
2023-03-08T20:48:34.224Z,40.38
2023-03-08T20:51:02.593Z,37.25
2023-03-08T20:53:31.088Z,41.58
2023-03-08T20:56:00.108Z,41.35
2023-03-08T20:58:28.863Z,38.03
2023-03-08T21:00:56.936Z,37.78
2023-03-08T21:03:27.108Z,38.83
2023-03-08T21:05:55.172Z,38.17
2023-03-08T21:08:24.335Z,38.30
2023-03-08T21:10:52.434Z,34.67
2023-03-08T21:13:20.656Z,36.30
2023-03-08T21:15:48.811Z,36.28
2023-03-08T21:18:16.970Z,36.78
2023-03-08T21:20:48.006Z,32.65
2023-03-08T21:23:21.380Z,33.42
2023-03-08T21:25:49.628Z,34.95
2023-03-08T21:28:17.689Z,34.95
2023-03-08T21:30:45.791Z,34.55
2023-03-08T21:33:13.929Z,35.10
2023-03-08T21:35:42.370Z,33.35
2023-03-08T21:38:11.919Z,36.00
2023-03-08T21:40:40.622Z,32.53
2023-03-08T21:43:08.723Z,32.45
2023-03-08T21:45:40.286Z,34.92
2023-03-08T21:48:08.784Z,34.20
2023-03-08T21:50:38.823Z,33.15
2023-03-08T21:53:07.052Z,33.55
2023-03-08T21:55:39.582Z,31.10
2023-03-08T21:58:07.773Z,31.65
2023-03-08T22:00:36.689Z,34.25
2023-03-08T22:03:04.891Z,29.85
2023-03-08T22:05:33.080Z,30.23
2023-03-08T22:08:01.187Z,31.50
2023-03-08T22:10:29.554Z,30.60
2023-03-08T22:12:59.021Z,29.98
2023-03-08T22:15:27.205Z,29.35
2023-03-08T22:17:55.279Z,31.33
2023-03-08T22:20:23.544Z,30.80
2023-03-08T22:22:51.615Z,28.42
2023-03-08T22:25:19.929Z,29.98
2023-03-08T22:27:48.025Z,30.23
2023-03-08T22:30:17.895Z,29.77
2023-03-08T22:32:46.055Z,28.50
2023-03-08T22:35:14.195Z,29.17
2023-03-08T22:37:42.275Z,28.88
2023-03-08T22:40:13.048Z,26.88
2023-03-08T22:42:41.273Z,26.33
2023-03-08T22:45:10.462Z,28.83
2023-03-08T22:47:40.030Z,27.85
2023-03-08T22:50:08.543Z,26.65
2023-03-08T22:52:36.677Z,26.98
2023-03-08T22:55:05.271Z,27.08
2023-03-08T22:57:33.431Z,25.27
2023-03-08T23:00:01.542Z,25.10
2023-03-08T23:02:31.244Z,26.17
2023-03-08T23:05:00.716Z,25.95
2023-03-08T23:07:28.841Z,25.73
2023-03-08T23:09:56.961Z,24.98
2023-03-08T23:12:25.051Z,25.67
2023-03-08T23:14:53.148Z,24.75
2023-03-08T23:17:21.216Z,26.27
2023-03-08T23:19:50.766Z,24.55
2023-03-08T23:22:20.186Z,24.50
2023-03-08T23:24:48.335Z,24.70
2023-03-08T23:27:16.427Z,24.50
2023-03-08T23:29:44.564Z,22.80
2023-03-08T23:32:12.771Z,23.92
2023-03-08T23:34:42.089Z,26.52
2023-03-08T23:37:10.217Z,23.13
2023-03-08T23:39:39.713Z,22.88
2023-03-08T23:42:07.951Z,24.08
2023-03-08T23:44:36.039Z,23.50
2023-03-08T23:47:04.418Z,21.08
2023-03-08T23:49:32.573Z,21.70
2023-03-08T23:52:00.737Z,21.23
2023-03-08T23:54:28.817Z,21.92
2023-03-08T23:56:58.310Z,21.50
2023-03-08T23:59:26.385Z,20.85
